RJOO

Osaka International Airport

Osaka, Japan
TAF RJOO 212307Z 2200/2306 31006KT 9999 FEW025 SCT045
Issued Valid From Valid To
Jan-21 @ 23:07 UTC
(an hour ago)
Jan-22 @ 00:00 UTC
(31 minutes ago)
Jan-23 @ 06:00 UTC
(-1 days ago)
Jan-22 @ 00:00 to Jan-23 @ 06:00
TAF RJOO 212307Z 2200/2306 31006KT 9999 FEW025 SCT045
Wind Visibility Clouds
310° at 6 knots 10,000+ meters
  • Few at 2,500' AGL
  • Scattered at 4,500' AGL
TAF RJOO 212307Z 2200/2306 31006KT 9999 FEW025 SCT045
Issued Jan-21 @ 23:07 UTC
(an hour ago)
Valid From Jan-22 @ 00:00 UTC
(31 minutes ago)
Valid To Jan-23 @ 06:00 UTC
(-1 days ago)
Jan-22 @ 00:00 - Jan-23 @ 06:00
Wind Visibility
310° at 6 knots 10,000+ meters
Clouds
  • Few at 2,500' AGL
  • Scattered at 4,500' AGL